Time;durP1;ratioP1;P1;durP2;ratioP2;P2;SDS_P1;SDS_P2;PMS_P1;PMS_P2;Temp;Humidity;BMP_temperature;BMP_pressure;BME280_temperature;BME280_humidity;BME280_pressure;Samples;Min_cycle;Max_cycle;Signal;HPM_P1;HPM_P2
2021/12/12 00:01:42;;;;;;;;;;;18.80;36.80;;;;;;5157729;27;19918;-54
2021/12/12 00:04:14;;;;;;;;;;;18.70;36.80;;;;;;5157221;27;19908;-55
2021/12/12 00:06:42;;;;;;;;;;;18.70;36.80;;;;;;5157542;27;20001;-55
2021/12/12 00:09:17;;;;;;;;;;;18.80;36.80;;;;;;5157131;27;19911;-51
2021/12/12 00:11:43;;;;;;;;;;;18.70;36.80;;;;;;5157136;27;20287;-55
2021/12/12 00:14:12;;;;;;;;;;;18.70;36.80;;;;;;5157382;27;19928;-52
2021/12/12 00:16:38;;;;;;;;;;;18.70;36.80;;;;;;5156997;27;19907;-53
2021/12/12 00:19:04;;;;;;;;;;;18.70;36.80;;;;;;5156996;27;20344;-56
2021/12/12 00:21:31;;;;;;;;;;;18.70;36.80;;;;;;5157085;27;19907;-53
2021/12/12 00:23:57;;;;;;;;;;;18.70;36.80;;;;;;5156996;27;19914;-53
2021/12/12 00:26:23;;;;;;;;;;;18.70;36.80;;;;;;5156784;27;19907;-49
2021/12/12 00:28:48;;;;;;;;;;;18.70;36.90;;;;;;5156545;27;19907;-53
2021/12/12 00:31:15;;;;;;;;;;;18.70;36.90;;;;;;5156978;27;20381;-53
2021/12/12 00:33:43;;;;;;;;;;;18.70;36.90;;;;;;5156757;27;19919;-53
2021/12/12 00:36:09;;;;;;;;;;;18.70;36.80;;;;;;5156659;27;19911;-54
2021/12/12 00:38:35;;;;;;;;;;;18.70;36.90;;;;;;5156587;27;19907;-53
2021/12/12 00:41:04;;;;;;;;;;;18.70;36.90;;;;;;5157069;27;19930;-52
2021/12/12 00:43:32;;;;;;;;;;;18.70;36.90;;;;;;5138276;27;19928;-58
2021/12/12 00:45:59;;;;;;;;;;;18.70;36.90;;;;;;5156482;27;19915;-55
2021/12/12 00:48:26;;;;;;;;;;;18.70;36.90;;;;;;5156349;27;19914;-56
2021/12/12 00:50:52;;;;;;;;;;;18.60;36.90;;;;;;5156368;27;19913;-55
2021/12/12 00:53:20;;;;;;;;;;;18.60;36.90;;;;;;5137824;27;19915;-54
2021/12/12 00:55:47;;;;;;;;;;;18.60;36.90;;;;;;5156531;27;19907;-53
2021/12/12 00:58:14;;;;;;;;;;;18.60;36.90;;;;;;5156320;27;19907;-52
2021/12/12 01:00:43;;;;;;;;;;;18.60;36.90;;;;;;5156179;27;19933;-56
2021/12/12 01:03:10;;;;;;;;;;;18.60;36.90;;;;;;5156182;27;20278;-55
2021/12/12 01:05:36;;;;;;;;;;;18.60;36.90;;;;;;5156186;27;19946;-52
2021/12/12 01:08:04;;;;;;;;;;;18.60;36.90;;;;;;5156153;27;19908;-50
2021/12/12 01:10:31;;;;;;;;;;;18.60;36.90;;;;;;5156300;27;19953;-55
2021/12/12 01:12:58;;;;;;;;;;;18.60;36.90;;;;;;5156076;27;19911;-50
2021/12/12 01:15:29;;;;;;;;;;;18.60;36.90;;;;;;5156334;27;20002;-50
2021/12/12 01:17:56;;;;;;;;;;;18.60;36.90;;;;;;5155992;27;20056;-50
2021/12/12 01:20:29;;;;;;;;;;;18.60;36.90;;;;;;5155985;27;19959;-50
2021/12/12 01:22:59;;;;;;;;;;;18.60;36.90;;;;;;5156351;27;20027;-52
2021/12/12 01:25:27;;;;;;;;;;;18.60;36.90;;;;;;5155996;27;19998;-50
2021/12/12 01:27:53;;;;;;;;;;;18.60;36.90;;;;;;5155815;27;20259;-52
2021/12/12 01:30:21;;;;;;;;;;;18.60;36.90;;;;;;5155874;27;19915;-50
2021/12/12 01:32:47;;;;;;;;;;;18.60;36.90;;;;;;5155661;27;20293;-54
2021/12/12 01:35:15;;;;;;;;;;;18.60;36.90;;;;;;5155682;27;19914;-50
2021/12/12 01:37:49;;;;;;;;;;;18.60;36.90;;;;;;5156153;27;19930;-51
2021/12/12 01:40:17;;;;;;;;;;;18.60;36.90;;;;;;5155537;27;20374;-51
2021/12/12 01:42:45;;;;;;;;;;;18.60;36.90;;;;;;5155482;27;20400;-49
2021/12/12 01:45:19;;;;;;;;;;;18.50;36.90;;;;;;5155454;27;20362;-53
2021/12/12 01:47:48;;;;;;;;;;;18.60;36.90;;;;;;5155553;27;20377;-51
2021/12/12 01:50:16;;;;;;;;;;;18.60;36.90;;;;;;5155473;27;19951;-51
2021/12/12 01:52:42;;;;;;;;;;;18.60;36.90;;;;;;5155550;27;19915;-55
2021/12/12 01:55:12;;;;;;;;;;;18.50;36.90;;;;;;5155437;27;19915;-50
2021/12/12 01:57:39;;;;;;;;;;;18.60;36.90;;;;;;5155644;27;19908;-51
2021/12/12 02:00:08;;;;;;;;;;;18.50;36.90;;;;;;5154450;27;19926;-49
2021/12/12 02:02:34;;;;;;;;;;;18.50;36.90;;;;;;5155509;27;20319;-50
2021/12/12 02:05:05;;;;;;;;;;;18.50;36.90;;;;;;5155492;27;19907;-54
2021/12/12 02:07:33;;;;;;;;;;;18.50;36.90;;;;;;5155380;27;19914;-51
2021/12/12 02:10:00;;;;;;;;;;;18.50;36.90;;;;;;5155454;27;19918;-50
2021/12/12 02:12:26;;;;;;;;;;;18.50;37.00;;;;;;5154826;27;19913;-50
2021/12/12 02:14:52;;;;;;;;;;;18.50;36.90;;;;;;5155101;27;19911;-53
2021/12/12 02:17:29;;;;;;;;;;;18.50;36.90;;;;;;5155371;27;19951;-50
2021/12/12 02:20:16;;;;;;;;;;;18.50;36.90;;;;;;5155291;27;19913;-51
2021/12/12 02:36:10;;;;;;;;;;;18.50;37.00;;;;;;5155334;27;20377;-50
2021/12/12 02:38:36;;;;;;;;;;;18.50;36.90;;;;;;5155187;27;19908;-50
2021/12/12 02:41:04;;;;;;;;;;;18.50;37.00;;;;;;5154905;27;20423;-52
2021/12/12 02:43:31;;;;;;;;;;;18.50;37.00;;;;;;5154821;27;19915;-52
2021/12/12 02:45:57;;;;;;;;;;;18.50;36.90;;;;;;5154663;27;19911;-54
2021/12/12 02:48:34;;;;;;;;;;;18.50;37.00;;;;;;5155089;27;19907;-54
2021/12/12 02:51:01;;;;;;;;;;;18.50;37.00;;;;;;5155055;27;19907;-53
2021/12/12 02:53:29;;;;;;;;;;;18.50;37.00;;;;;;5155015;27;19915;-54
2021/12/12 02:56:00;;;;;;;;;;;18.50;37.00;;;;;;5154744;27;19930;-52
2021/12/12 02:58:26;;;;;;;;;;;18.50;37.00;;;;;;5154532;27;19907;-55
2021/12/12 03:01:04;;;;;;;;;;;18.50;37.00;;;;;;5154429;27;19963;-55
2021/12/12 03:03:30;;;;;;;;;;;18.50;37.00;;;;;;5154909;27;20002;-54
2021/12/12 03:05:55;;;;;;;;;;;18.50;37.00;;;;;;5154604;27;19914;-53
2021/12/12 03:08:21;;;;;;;;;;;18.50;37.00;;;;;;5154620;27;19998;-53
2021/12/12 03:10:48;;;;;;;;;;;18.50;37.00;;;;;;5155431;27;20184;-55
2021/12/12 03:13:13;;;;;;;;;;;18.50;37.00;;;;;;5158455;27;19911;-52
2021/12/12 03:15:40;;;;;;;;;;;18.50;37.00;;;;;;5158550;27;19983;-51
2021/12/12 03:18:14;;;;;;;;;;;18.50;37.00;;;;;;5158568;27;19950;-54
2021/12/12 03:20:42;;;;;;;;;;;18.50;37.00;;;;;;5158203;27;20311;-50
2021/12/12 03:23:26;;;;;;;;;;;18.50;37.00;;;;;;5158438;27;19967;-51
2021/12/12 03:25:53;;;;;;;;;;;18.50;37.00;;;;;;5158102;27;20303;-51
2021/12/12 03:28:20;;;;;;;;;;;18.50;37.00;;;;;;5158352;27;20278;-50
2021/12/12 03:30:46;;;;;;;;;;;18.50;37.00;;;;;;5158348;27;19914;-50
2021/12/12 03:33:12;;;;;;;;;;;18.50;37.00;;;;;;5157846;27;20365;-52
2021/12/12 03:35:38;;;;;;;;;;;18.50;37.00;;;;;;5158245;27;19919;-52
2021/12/12 03:38:03;;;;;;;;;;;18.50;37.00;;;;;;5158190;27;19914;-52
2021/12/12 03:40:31;;;;;;;;;;;18.50;37.00;;;;;;5158222;27;20311;-51
2021/12/12 03:42:58;;;;;;;;;;;18.50;37.00;;;;;;5157837;27;20390;-54
2021/12/12 03:45:24;;;;;;;;;;;18.50;37.00;;;;;;5157929;27;19952;-54
2021/12/12 03:47:52;;;;;;;;;;;18.50;37.00;;;;;;5158236;27;20005;-56
2021/12/12 03:50:19;;;;;;;;;;;18.50;37.00;;;;;;5157830;27;19975;-57
2021/12/12 03:52:46;;;;;;;;;;;18.50;37.00;;;;;;5157875;27;19998;-50
2021/12/12 03:55:12;;;;;;;;;;;18.40;37.00;;;;;;5157827;27;19907;-50
2021/12/12 03:57:38;;;;;;;;;;;18.40;37.00;;;;;;5157513;27;20373;-55
2021/12/12 04:00:07;;;;;;;;;;;18.50;37.00;;;;;;5157242;27;19979;-56
2021/12/12 04:02:33;;;;;;;;;;;18.40;37.00;;;;;;5157457;27;20300;-56
2021/12/12 04:04:58;;;;;;;;;;;18.40;37.10;;;;;;5157355;27;20009;-53
2021/12/12 04:07:25;;;;;;;;;;;18.40;37.10;;;;;;5157443;27;19990;-51
2021/12/12 04:09:51;;;;;;;;;;;18.40;37.10;;;;;;5157289;27;20373;-56
2021/12/12 04:12:18;;;;;;;;;;;18.50;37.10;;;;;;5157263;27;19907;-50
2021/12/12 04:14:44;;;;;;;;;;;18.40;37.10;;;;;;5157211;27;19915;-55
2021/12/12 04:17:13;;;;;;;;;;;18.50;37.10;;;;;;5157367;27;19907;-51
2021/12/12 04:19:39;;;;;;;;;;;18.50;37.10;;;;;;5157341;27;19917;-55
2021/12/12 04:22:05;;;;;;;;;;;18.40;37.10;;;;;;5156818;27;19911;-55
2021/12/12 04:24:31;;;;;;;;;;;18.40;37.10;;;;;;5157146;27;20323;-52
2021/12/12 04:26:58;;;;;;;;;;;18.40;37.10;;;;;;5157148;27;20272;-55
2021/12/12 04:29:28;;;;;;;;;;;18.40;37.10;;;;;;5138739;27;19914;-50
2021/12/12 04:31:57;;;;;;;;;;;18.40;37.20;;;;;;5156943;27;19961;-50
2021/12/12 04:34:24;;;;;;;;;;;18.40;37.10;;;;;;5156896;27;19915;-53
2021/12/12 04:36:49;;;;;;;;;;;18.50;37.20;;;;;;5156744;27;20354;-50
2021/12/12 04:39:17;;;;;;;;;;;18.40;37.20;;;;;;5156785;27;19967;-53
2021/12/12 04:41:43;;;;;;;;;;;18.40;37.20;;;;;;5156855;27;20322;-53
2021/12/12 04:44:09;;;;;;;;;;;18.40;37.20;;;;;;5156869;27;20319;-50
2021/12/12 04:49:55;;;;;;;;;;;18.40;37.20;;;;;;5156834;27;19994;-51
2021/12/12 04:52:15;;;;;;;;;;;18.40;37.20;;;;;;5156874;27;19914;-52
2021/12/12 04:54:47;;;;;;;;;;;18.40;37.30;;;;;;5156292;27;20269;-52
2021/12/12 04:57:15;;;;;;;;;;;18.40;37.30;;;;;;5156652;27;19915;-50
2021/12/12 05:00:00;;;;;;;;;;;18.40;37.30;;;;;;5156240;27;19919;-52
2021/12/12 05:02:31;;;;;;;;;;;18.40;37.30;;;;;;5155662;27;20429;-51
2021/12/12 05:04:56;;;;;;;;;;;18.40;37.30;;;;;;5156300;27;19907;-50
2021/12/12 05:07:30;;;;;;;;;;;18.40;37.30;;;;;;5156155;27;19951;-50
2021/12/12 05:10:07;;;;;;;;;;;18.40;37.30;;;;;;5156421;27;19993;-50
2021/12/12 05:12:34;;;;;;;;;;;18.40;37.30;;;;;;5156008;27;19907;-50
2021/12/12 05:15:05;;;;;;;;;;;18.50;37.30;;;;;;5156025;27;19911;-50
2021/12/12 05:17:39;;;;;;;;;;;18.50;37.30;;;;;;5156244;27;19958;-50
2021/12/12 05:20:06;;;;;;;;;;;18.40;37.20;;;;;;5155810;27;19918;-50
2021/12/12 05:22:43;;;;;;;;;;;18.50;37.20;;;;;;5155766;27;19907;-49
2021/12/12 05:25:13;;;;;;;;;;;18.50;37.20;;;;;;5155740;27;19958;-50
2021/12/12 05:27:38;;;;;;;;;;;18.50;37.20;;;;;;5155915;27;19963;-52
2021/12/12 05:30:10;;;;;;;;;;;18.50;37.10;;;;;;5156033;27;20307;-50
2021/12/12 05:32:36;;;;;;;;;;;18.50;37.20;;;;;;5155441;27;19990;-51
2021/12/12 05:35:02;;;;;;;;;;;18.50;37.10;;;;;;5155276;27;19911;-51
2021/12/12 05:37:28;;;;;;;;;;;18.60;37.10;;;;;;5155524;27;19907;-55
2021/12/12 05:39:54;;;;;;;;;;;18.60;37.10;;;;;;5155558;27;19914;-51
2021/12/12 05:42:20;;;;;;;;;;;18.60;37.10;;;;;;5155798;27;20372;-51
2021/12/12 05:44:46;;;;;;;;;;;18.60;37.10;;;;;;5155770;27;19914;-52
2021/12/12 05:47:12;;;;;;;;;;;18.70;37.10;;;;;;5155741;27;20261;-55
2021/12/12 05:49:38;;;;;;;;;;;18.70;37.10;;;;;;5155674;27;19974;-53
2021/12/12 05:52:11;;;;;;;;;;;18.70;37.10;;;;;;5155502;27;19977;-54
2021/12/12 05:54:37;;;;;;;;;;;18.70;37.00;;;;;;5155166;27;19922;-50
2021/12/12 05:57:03;;;;;;;;;;;18.70;37.10;;;;;;5155565;27;19908;-51
2021/12/12 05:59:29;;;;;;;;;;;18.80;37.10;;;;;;5155206;27;19967;-50
2021/12/12 06:01:57;;;;;;;;;;;18.70;37.10;;;;;;5155233;27;20002;-52
2021/12/12 06:04:22;;;;;;;;;;;18.80;37.10;;;;;;5155464;27;19907;-51
2021/12/12 06:06:48;;;;;;;;;;;18.80;37.10;;;;;;5155234;27;20006;-50
2021/12/12 06:09:15;;;;;;;;;;;18.80;37.10;;;;;;5155394;27;19907;-50
2021/12/12 06:11:43;;;;;;;;;;;18.80;37.10;;;;;;5155432;27;19907;-50
2021/12/12 06:14:09;;;;;;;;;;;18.80;37.10;;;;;;5154847;27;20017;-52
2021/12/12 06:16:35;;;;;;;;;;;18.80;37.10;;;;;;5155319;27;20378;-51
2021/12/12 06:19:03;;;;;;;;;;;18.80;37.10;;;;;;5155242;27;19930;-51
2021/12/12 06:21:29;;;;;;;;;;;18.90;37.10;;;;;;5155188;27;20328;-50
2021/12/12 06:23:54;;;;;;;;;;;18.90;37.20;;;;;;5155281;27;19908;-50
2021/12/12 06:26:21;;;;;;;;;;;18.80;37.10;;;;;;5155236;27;19911;-51
2021/12/12 06:28:47;;;;;;;;;;;18.80;37.20;;;;;;5155237;27;19907;-52
2021/12/12 06:31:12;;;;;;;;;;;18.90;37.20;;;;;;5155274;27;19931;-51
2021/12/12 06:33:39;;;;;;;;;;;18.90;37.20;;;;;;5155000;27;19991;-54
2021/12/12 06:36:05;;;;;;;;;;;18.90;37.20;;;;;;5154832;27;20358;-52
2021/12/12 06:38:31;;;;;;;;;;;18.90;37.20;;;;;;5154757;27;20347;-52
2021/12/12 06:40:57;;;;;;;;;;;18.90;37.20;;;;;;5154773;27;19969;-50
2021/12/12 06:43:23;;;;;;;;;;;18.90;37.20;;;;;;5154690;27;19914;-51
2021/12/12 06:45:49;;;;;;;;;;;18.90;37.20;;;;;;5157829;27;19911;-57
2021/12/12 06:48:16;;;;;;;;;;;18.90;37.20;;;;;;5159039;27;20418;-55
2021/12/12 06:50:43;;;;;;;;;;;18.90;37.20;;;;;;5159015;27;19914;-56
2021/12/12 06:53:08;;;;;;;;;;;18.90;37.30;;;;;;5158776;27;19915;-53
2021/12/12 06:55:36;;;;;;;;;;;18.90;37.30;;;;;;5158792;27;19966;-55
2021/12/12 06:58:04;;;;;;;;;;;18.90;37.30;;;;;;5158719;27;20289;-50
2021/12/12 07:00:30;;;;;;;;;;;19.00;37.30;;;;;;5158527;27;20348;-50
2021/12/12 07:02:55;;;;;;;;;;;19.00;37.30;;;;;;5158623;27;19914;-52
2021/12/12 07:05:23;;;;;;;;;;;19.00;37.30;;;;;;5158826;27;19913;-54
2021/12/12 07:07:49;;;;;;;;;;;19.00;37.30;;;;;;5158611;27;20326;-55
2021/12/12 07:10:16;;;;;;;;;;;19.00;37.30;;;;;;5139942;27;19951;-52
2021/12/12 07:12:42;;;;;;;;;;;19.00;37.30;;;;;;5158670;27;19907;-55
2021/12/12 07:15:12;;;;;;;;;;;19.00;37.30;;;;;;5158789;27;20389;-52
2021/12/12 07:17:38;;;;;;;;;;;19.00;37.30;;;;;;5158693;27;19948;-56
2021/12/12 07:20:05;;;;;;;;;;;19.00;37.30;;;;;;5158421;27;19952;-54
2021/12/12 07:22:30;;;;;;;;;;;19.00;37.30;;;;;;5158099;27;19954;-52
2021/12/12 07:24:58;;;;;;;;;;;19.00;37.40;;;;;;5158204;27;19913;-51
2021/12/12 07:27:24;;;;;;;;;;;19.00;37.30;;;;;;5158317;27;19908;-56
2021/12/12 07:29:49;;;;;;;;;;;19.00;37.40;;;;;;5158278;27;19907;-50
2021/12/12 07:32:15;;;;;;;;;;;19.00;37.40;;;;;;5158163;27;19914;-50
2021/12/12 07:34:40;;;;;;;;;;;19.00;37.40;;;;;;5157980;27;20323;-51
2021/12/12 07:37:07;;;;;;;;;;;19.00;37.40;;;;;;5158297;27;19911;-50
2021/12/12 07:39:32;;;;;;;;;;;19.00;37.40;;;;;;5158160;27;19907;-53
2021/12/12 07:41:59;;;;;;;;;;;19.00;37.50;;;;;;5139315;27;20020;-53
2021/12/12 07:44:26;;;;;;;;;;;19.00;37.40;;;;;;5157883;27;19914;-54
2021/12/12 07:46:52;;;;;;;;;;;19.10;37.40;;;;;;5157824;27;19907;-56
2021/12/12 07:49:18;;;;;;;;;;;19.00;37.40;;;;;;5157863;27;20280;-51
2021/12/12 07:51:44;;;;;;;;;;;19.10;37.40;;;;;;5139080;27;19907;-52
2021/12/12 07:54:10;;;;;;;;;;;19.10;37.50;;;;;;5157824;27;19922;-51
2021/12/12 07:56:37;;;;;;;;;;;19.10;37.50;;;;;;5156969;27;20003;-52
2021/12/12 07:59:04;;;;;;;;;;;19.10;37.50;;;;;;5157788;27;19919;-52
2021/12/12 08:01:29;;;;;;;;;;;19.10;37.50;;;;;;5157845;27;19947;-51
2021/12/12 08:03:56;;;;;;;;;;;19.10;37.40;;;;;;5157617;27;19908;-52
2021/12/12 08:06:22;;;;;;;;;;;19.10;37.50;;;;;;5139171;27;19907;-54
2021/12/12 08:08:48;;;;;;;;;;;19.10;37.60;;;;;;5157322;27;19907;-52
2021/12/12 08:11:18;;;;;;;;;;;19.10;37.60;;;;;;5157569;27;20001;-52
2021/12/12 08:13:43;;;;;;;;;;;19.10;37.60;;;;;;5157466;27;19915;-52
2021/12/12 08:16:09;;;;;;;;;;;19.10;37.50;;;;;;5157333;27;19907;-52
2021/12/12 08:18:37;;;;;;;;;;;19.10;37.50;;;;;;5157538;27;19913;-52
2021/12/12 08:21:03;;;;;;;;;;;19.10;37.50;;;;;;5157020;27;20322;-55
2021/12/12 08:23:29;;;;;;;;;;;19.10;37.60;;;;;;5157356;27;20009;-52
2021/12/12 08:25:55;;;;;;;;;;;19.10;37.60;;;;;;5156917;27;19907;-51
2021/12/12 08:28:21;;;;;;;;;;;19.10;37.60;;;;;;5157257;27;19907;-55
2021/12/12 08:30:48;;;;;;;;;;;19.10;37.60;;;;;;5156951;27;19968;-52
2021/12/12 08:33:14;;;;;;;;;;;19.20;37.60;;;;;;5157036;27;19911;-55
2021/12/12 08:35:40;;;;;;;;;;;19.20;37.70;;;;;;5157095;27;19918;-52
2021/12/12 08:38:07;;;;;;;;;;;19.20;37.60;;;;;;5157028;27;19918;-50
2021/12/12 08:40:34;;;;;;;;;;;19.20;37.60;;;;;;5156685;27;20406;-52
2021/12/12 08:43:00;;;;;;;;;;;19.20;37.70;;;;;;5156655;27;20332;-53
2021/12/12 08:45:28;;;;;;;;;;;19.20;37.60;;;;;;5156680;27;19907;-56
2021/12/12 08:47:54;;;;;;;;;;;19.20;37.60;;;;;;5156597;27;19911;-51
2021/12/12 08:50:22;;;;;;;;;;;19.20;37.60;;;;;;5156563;27;19907;-54
2021/12/12 08:52:49;;;;;;;;;;;19.20;37.70;;;;;;5156682;27;19913;-51
2021/12/12 08:55:18;;;;;;;;;;;19.20;37.70;;;;;;5156558;27;19954;-53
2021/12/12 08:58:02;;;;;;;;;;;19.20;37.70;;;;;;5156512;27;19907;-51
2021/12/12 09:00:30;;;;;;;;;;;19.20;37.70;;;;;;5156248;27;19923;-50
2021/12/12 09:02:56;;;;;;;;;;;19.20;37.70;;;;;;5156141;27;19907;-51
2021/12/12 09:05:25;;;;;;;;;;;19.20;37.70;;;;;;5156391;27;19907;-51
2021/12/12 09:07:51;;;;;;;;;;;19.20;37.80;;;;;;5156381;27;19907;-51
2021/12/12 09:10:27;;;;;;;;;;;19.20;37.80;;;;;;5156363;27;19908;-55
2021/12/12 09:12:58;;;;;;;;;;;19.20;37.80;;;;;;5155905;27;19915;-53
2021/12/12 09:15:59;;;;;;;;;;;19.20;37.80;;;;;;5156197;27;19914;-50
2021/12/12 09:18:28;;;;;;;;;;;19.30;37.80;;;;;;5051816;28;20011;-53
2021/12/12 09:20:58;;;;;;;;;;;19.20;37.80;;;;;;5136681;27;19907;-54
2021/12/12 09:23:27;;;;;;;;;;;19.20;37.80;;;;;;5155830;27;19907;-51
2021/12/12 09:25:58;;;;;;;;;;;19.20;37.80;;;;;;5155664;27;20371;-50
2021/12/12 09:28:26;;;;;;;;;;;19.20;37.90;;;;;;5155865;27;19907;-50
2021/12/12 09:30:52;;;;;;;;;;;19.20;37.80;;;;;;5155651;27;19907;-50
2021/12/12 09:33:53;;;;;;;;;;;19.30;37.80;;;;;;5155831;27;19998;-51
2021/12/12 09:36:20;;;;;;;;;;;19.20;37.90;;;;;;5051507;28;20159;-52
2021/12/12 09:38:45;;;;;;;;;;;19.30;37.80;;;;;;5134721;27;20449;-51
2021/12/12 09:41:11;;;;;;;;;;;19.30;37.90;;;;;;5155522;27;19998;-51
2021/12/12 09:44:02;;;;;;;;;;;19.30;37.80;;;;;;5155550;27;19963;-50
2021/12/12 09:47:12;;;;;;;;;;;19.30;37.90;;;;;;5155404;27;20005;-51
2021/12/12 09:52:56;;;;;;;;;;;19.30;37.90;;;;;;5155778;27;20395;-50
2021/12/12 09:55:32;;;;;;;;;;;19.30;37.90;;;;;;5107250;27;19915;-51
2021/12/12 09:58:00;;;;;;;;;;;19.30;37.90;;;;;;5155368;27;20350;-53
2021/12/12 10:00:26;;;;;;;;;;;19.30;37.90;;;;;;5155118;27;19926;-51
2021/12/12 10:03:11;;;;;;;;;;;19.30;37.90;;;;;;5155244;27;19907;-53
2021/12/12 10:05:37;;;;;;;;;;;19.30;37.90;;;;;;5155684;27;19970;-54
2021/12/12 10:08:02;;;;;;;;;;;19.30;38.00;;;;;;5155515;27;19911;-52
2021/12/12 10:10:31;;;;;;;;;;;19.30;38.00;;;;;;5155191;27;20267;-54
2021/12/12 10:13:07;;;;;;;;;;;19.30;38.00;;;;;;5155032;27;19907;-54
2021/12/12 10:15:40;;;;;;;;;;;19.30;38.00;;;;;;5155184;27;19907;-52
2021/12/12 10:18:09;;;;;;;;;;;19.30;38.00;;;;;;5155132;27;19911;-54
2021/12/12 10:20:41;;;;;;;;;;;19.30;38.00;;;;;;5159755;27;20477;-52
2021/12/12 10:23:09;;;;;;;;;;;19.30;38.00;;;;;;5162232;27;19907;-55
2021/12/12 10:25:35;;;;;;;;;;;19.30;37.90;;;;;;5161708;27;19907;-51
2021/12/12 10:28:07;;;;;;;;;;;19.40;38.00;;;;;;5161935;27;19914;-50
2021/12/12 10:30:58;;;;;;;;;;;19.30;38.00;;;;;;5162151;27;19907;-49
2021/12/12 10:33:39;;;;;;;;;;;19.40;38.00;;;;;;5156553;27;19911;-50
2021/12/12 10:36:07;;;;;;;;;;;19.30;38.00;;;;;;5161894;27;19907;-50
2021/12/12 10:38:51;;;;;;;;;;;19.40;38.00;;;;;;5162076;27;20001;-48
2021/12/12 10:41:21;;;;;;;;;;;19.30;38.00;;;;;;5162033;27;19907;-50
2021/12/12 10:43:53;;;;;;;;;;;19.40;38.00;;;;;;5162055;27;19907;-50
2021/12/12 10:46:21;;;;;;;;;;;19.30;38.00;;;;;;5161855;27;19918;-51
2021/12/12 10:48:56;;;;;;;;;;;19.40;38.00;;;;;;5162236;27;19959;-51
2021/12/12 10:51:23;;;;;;;;;;;19.40;38.00;;;;;;5161657;27;20381;-50
2021/12/12 10:53:55;;;;;;;;;;;19.40;38.10;;;;;;5161875;27;19964;-51
2021/12/12 10:56:37;;;;;;;;;;;19.30;38.10;;;;;;5161827;27;19946;-48
2021/12/12 10:59:04;;;;;;;;;;;19.40;38.10;;;;;;5161426;27;19919;-52
2021/12/12 11:01:32;;;;;;;;;;;19.40;38.10;;;;;;5161849;27;19907;-49
2021/12/12 11:04:10;;;;;;;;;;;19.40;38.10;;;;;;5142960;27;19907;-51
2021/12/12 11:06:38;;;;;;;;;;;19.40;38.20;;;;;;5161775;27;19907;-53
2021/12/12 11:09:22;;;;;;;;;;;19.40;38.10;;;;;;5161025;27;21277;-52
2021/12/12 11:12:06;;;;;;;;;;;19.40;38.20;;;;;;5161424;27;20411;-55
2021/12/12 11:14:35;;;;;;;;;;;19.40;38.10;;;;;;5161469;27;20014;-51
2021/12/12 11:17:09;;;;;;;;;;;19.40;38.20;;;;;;5161661;27;19907;-51
2021/12/12 11:19:38;;;;;;;;;;;19.40;38.10;;;;;;5161763;27;20366;-51
2021/12/12 11:22:15;;;;;;;;;;;19.40;38.20;;;;;;5161431;27;20301;-53
2021/12/12 11:24:43;;;;;;;;;;;19.40;38.10;;;;;;5161406;27;19955;-54
2021/12/12 11:27:12;;;;;;;;;;;19.40;38.20;;;;;;5161530;27;19911;-50
2021/12/12 11:29:40;;;;;;;;;;;19.40;38.10;;;;;;5161414;27;19911;-50
2021/12/12 11:32:05;;;;;;;;;;;19.50;38.20;;;;;;5157694;27;19907;-50
2021/12/12 11:34:31;;;;;;;;;;;19.40;38.20;;;;;;5157963;27;19944;-50
2021/12/12 11:37:05;;;;;;;;;;;19.40;38.20;;;;;;5158088;27;19914;-50
2021/12/12 11:39:43;;;;;;;;;;;19.40;38.30;;;;;;5158128;27;19911;-54
2021/12/12 11:42:14;;;;;;;;;;;19.50;38.10;;;;;;5157726;27;19914;-56
2021/12/12 11:44:48;;;;;;;;;;;19.40;38.20;;;;;;5157688;27;19950;-51
2021/12/12 11:47:22;;;;;;;;;;;19.50;38.20;;;;;;5157726;27;19907;-49
2021/12/12 11:49:56;;;;;;;;;;;19.50;38.20;;;;;;5157654;27;19911;-50
2021/12/12 11:52:33;;;;;;;;;;;19.50;38.20;;;;;;5157497;27;19907;-50
2021/12/12 11:55:01;;;;;;;;;;;19.50;38.30;;;;;;5157156;27;19919;-54
2021/12/12 11:57:38;;;;;;;;;;;19.50;38.20;;;;;;5157640;27;19907;-54
2021/12/12 12:00:08;;;;;;;;;;;19.50;38.30;;;;;;5157014;27;20068;-52
2021/12/12 12:02:35;;;;;;;;;;;19.50;38.30;;;;;;5157466;27;19918;-53
2021/12/12 12:05:06;;;;;;;;;;;19.50;38.30;;;;;;5157411;27;19956;-51
2021/12/12 12:07:50;;;;;;;;;;;19.50;38.30;;;;;;5157248;27;19914;-53
2021/12/12 12:10:37;;;;;;;;;;;19.50;38.40;;;;;;5157113;27;19914;-50
2021/12/12 12:13:03;;;;;;;;;;;19.50;38.40;;;;;;5157025;27;19960;-54
2021/12/12 12:15:47;;;;;;;;;;;19.50;38.40;;;;;;5157202;27;19934;-53
2021/12/12 12:18:22;;;;;;;;;;;19.50;38.40;;;;;;5157253;27;20356;-51
2021/12/12 12:20:51;;;;;;;;;;;19.50;38.40;;;;;;5156920;27;19911;-49
2021/12/12 12:23:18;;;;;;;;;;;19.50;38.40;;;;;;5157193;27;19952;-54
2021/12/12 12:28:48;;;;;;;;;;;19.50;38.40;;;;;;5157494;27;19951;-55
2021/12/12 12:31:32;;;;;;;;;;;19.50;38.50;;;;;;5156704;27;19918;-54
2021/12/12 12:34:16;;;;;;;;;;;19.50;38.40;;;;;;5156880;27;20014;-53
2021/12/12 12:37:07;;;;;;;;;;;19.50;38.50;;;;;;5156757;27;19907;-50
2021/12/12 12:39:52;;;;;;;;;;;19.50;38.50;;;;;;5151518;27;19952;-55
2021/12/12 12:42:38;;;;;;;;;;;19.50;38.50;;;;;;5156442;27;19952;-54
2021/12/12 12:45:03;;;;;;;;;;;19.50;38.50;;;;;;5156629;27;19907;-50
2021/12/12 12:47:49;;;;;;;;;;;19.50;38.60;;;;;;5137872;27;19918;-52
2021/12/12 12:50:33;;;;;;;;;;;19.50;38.50;;;;;;5156271;27;19916;-51
2021/12/12 12:52:59;;;;;;;;;;;19.50;38.50;;;;;;5156509;27;19917;-57
2021/12/12 12:55:24;;;;;;;;;;;19.50;38.60;;;;;;5156703;27;20002;-54
2021/12/12 12:57:52;;;;;;;;;;;19.50;38.60;;;;;;5156350;27;19907;-55
2021/12/12 13:00:19;;;;;;;;;;;19.50;38.60;;;;;;5155898;27;19954;-55
2021/12/12 13:02:48;;;;;;;;;;;19.50;38.60;;;;;;5137774;27;20272;-50
2021/12/12 13:05:25;;;;;;;;;;;19.50;38.60;;;;;;5156009;27;20331;-54
2021/12/12 13:08:09;;;;;;;;;;;19.50;38.60;;;;;;5155981;27;19911;-55
2021/12/12 13:10:36;;;;;;;;;;;19.50;38.70;;;;;;5155890;27;20002;-50
2021/12/12 13:13:19;;;;;;;;;;;19.50;38.70;;;;;;5155883;27;20364;-55
2021/12/12 13:15:54;;;;;;;;;;;19.50;38.60;;;;;;5156120;27;19911;-50
2021/12/12 13:18:38;;;;;;;;;;;19.50;38.70;;;;;;5155949;27;19917;-50
2021/12/12 13:21:22;;;;;;;;;;;19.50;38.70;;;;;;5156066;27;19941;-53
2021/12/12 13:23:53;;;;;;;;;;;19.50;38.70;;;;;;5155992;27;20370;-55
2021/12/12 13:26:26;;;;;;;;;;;19.50;38.80;;;;;;5156074;27;19952;-51
2021/12/12 13:29:14;;;;;;;;;;;19.50;38.70;;;;;;5155771;27;19951;-52
2021/12/12 13:32:06;;;;;;;;;;;19.50;38.80;;;;;;5155659;27;19907;-52
2021/12/12 13:34:43;;;;;;;;;;;19.50;38.70;;;;;;5115978;27;19919;-55
2021/12/12 13:37:22;;;;;;;;;;;19.50;38.80;;;;;;5155468;27;19955;-55
2021/12/12 13:39:51;;;;;;;;;;;19.50;38.70;;;;;;5155519;27;20251;-52
2021/12/12 13:42:27;;;;;;;;;;;19.50;38.70;;;;;;5155522;27;20376;-56
2021/12/12 13:44:59;;;;;;;;;;;19.50;38.80;;;;;;5155751;27;20230;-52
2021/12/12 13:47:27;;;;;;;;;;;19.50;38.90;;;;;;5155200;27;20354;-56
2021/12/12 13:49:55;;;;;;;;;;;19.50;38.90;;;;;;5155254;27;19908;-56
2021/12/12 13:52:28;;;;;;;;;;;19.50;38.90;;;;;;5155099;27;20370;-56
2021/12/12 13:54:57;;;;;;;;;;;19.50;38.80;;;;;;5154336;27;19921;-55
2021/12/12 13:57:27;;;;;;;;;;;19.50;38.90;;;;;;5155351;27;19914;-50
2021/12/12 14:00:01;;;;;;;;;;;19.50;38.80;;;;;;5154985;27;19954;-56
2021/12/12 14:02:27;;;;;;;;;;;19.50;38.80;;;;;;5155094;27;19914;-55
2021/12/12 14:04:56;;;;;;;;;;;19.50;38.90;;;;;;5155231;27;19954;-56
2021/12/12 14:07:25;;;;;;;;;;;19.50;38.90;;;;;;5154968;27;20426;-56
2021/12/12 14:09:52;;;;;;;;;;;19.50;38.90;;;;;;5155090;27;19911;-55
2021/12/12 14:12:20;;;;;;;;;;;19.50;38.80;;;;;;5155302;27;19911;-56
2021/12/12 14:15:05;;;;;;;;;;;19.50;38.90;;;;;;5154935;27;19968;-56
2021/12/12 14:17:33;;;;;;;;;;;19.50;38.90;;;;;;5154886;27;19911;-55
2021/12/12 14:20:02;;;;;;;;;;;19.50;38.90;;;;;;5154862;27;19911;-56
2021/12/12 14:22:28;;;;;;;;;;;19.50;38.90;;;;;;5155114;27;19929;-56
2021/12/12 14:25:00;;;;;;;;;;;19.50;39.00;;;;;;5154819;27;20370;-55
2021/12/12 14:27:26;;;;;;;;;;;19.50;39.10;;;;;;5154914;27;19907;-53
2021/12/12 14:29:52;;;;;;;;;;;19.50;39.00;;;;;;5155097;27;20290;-56
2021/12/12 14:32:21;;;;;;;;;;;19.50;39.00;;;;;;5154772;27;19967;-49
2021/12/12 14:34:57;;;;;;;;;;;19.50;38.90;;;;;;5154791;27;19968;-50
2021/12/12 14:37:26;;;;;;;;;;;19.50;39.00;;;;;;5154786;27;20259;-52
2021/12/12 14:39:51;;;;;;;;;;;19.50;39.10;;;;;;5154892;27;19907;-51
2021/12/12 14:42:24;;;;;;;;;;;19.50;39.00;;;;;;5154871;27;19907;-56
2021/12/12 14:45:10;;;;;;;;;;;19.50;39.00;;;;;;5137240;27;19933;-54
2021/12/12 14:47:37;;;;;;;;;;;19.50;39.10;;;;;;5153784;27;20005;-50
2021/12/12 14:50:12;;;;;;;;;;;19.50;39.00;;;;;;5154645;27;20315;-56
2021/12/12 14:52:39;;;;;;;;;;;19.50;39.10;;;;;;5154424;27;20301;-52
2021/12/12 14:55:11;;;;;;;;;;;19.50;39.10;;;;;;5154137;27;19915;-55